sensor_id;sensor_type;location;lat;lon;timestamp;temperature;humidity
23102;DHT22;11720;51.214;22.574;2022-07-29T00:00:13;14.80;99.90
23102;DHT22;11720;51.214;22.574;2022-07-29T00:02:39;14.80;99.90
23102;DHT22;11720;51.214;22.574;2022-07-29T00:05:05;14.80;99.90
23102;DHT22;11720;51.214;22.574;2022-07-29T00:07:30;14.80;99.90
23102;DHT22;11720;51.214;22.574;2022-07-29T00:09:56;14.80;99.90
23102;DHT22;11720;51.214;22.574;2022-07-29T00:12:23;14.70;99.90
23102;DHT22;11720;51.214;22.574;2022-07-29T00:14:49;14.80;99.90
23102;DHT22;11720;51.214;22.574;2022-07-29T00:17:15;14.70;99.90
23102;DHT22;11720;51.214;22.574;2022-07-29T00:19:41;14.70;99.90
23102;DHT22;11720;51.214;22.574;2022-07-29T00:22:07;14.70;99.90
23102;DHT22;11720;51.214;22.574;2022-07-29T00:24:32;14.70;99.90
23102;DHT22;11720;51.214;22.574;2022-07-29T00:26:58;14.60;99.90
23102;DHT22;11720;51.214;22.574;2022-07-29T00:29:24;14.60;99.90
23102;DHT22;11720;51.214;22.574;2022-07-29T00:31:49;14.60;99.90
23102;DHT22;11720;51.214;22.574;2022-07-29T00:34:15;14.50;99.90
23102;DHT22;11720;51.214;22.574;2022-07-29T00:36:59;14.50;99.90
23102;DHT22;11720;51.214;22.574;2022-07-29T00:39:25;14.50;99.90
23102;DHT22;11720;51.214;22.574;2022-07-29T00:41:51;14.40;99.90
23102;DHT22;11720;51.214;22.574;2022-07-29T00:44:16;14.40;99.90
23102;DHT22;11720;51.214;22.574;2022-07-29T00:46:42;14.30;99.90
23102;DHT22;11720;51.214;22.574;2022-07-29T00:49:08;14.30;99.90
23102;DHT22;11720;51.214;22.574;2022-07-29T00:51:37;14.30;99.90
23102;DHT22;11720;51.214;22.574;2022-07-29T00:54:04;14.20;99.90
23102;DHT22;11720;51.214;22.574;2022-07-29T00:56:31;14.30;99.90
23102;DHT22;11720;51.214;22.574;2022-07-29T00:58:58;14.20;99.90
23102;DHT22;11720;51.214;22.574;2022-07-29T01:01:23;14.20;99.90
23102;DHT22;11720;51.214;22.574;2022-07-29T01:03:49;14.20;99.90
23102;DHT22;11720;51.214;22.574;2022-07-29T01:06:16;14.10;99.90
23102;DHT22;11720;51.214;22.574;2022-07-29T01:08:44;14.10;99.90
23102;DHT22;11720;51.214;22.574;2022-07-29T01:11:10;14.10;99.90
23102;DHT22;11720;51.214;22.574;2022-07-29T01:13:36;14.00;99.90
23102;DHT22;11720;51.214;22.574;2022-07-29T01:16:20;14.00;99.90
23102;DHT22;11720;51.214;22.574;2022-07-29T01:18:47;14.00;99.90
23102;DHT22;11720;51.214;22.574;2022-07-29T01:29:57;14.00;99.90
23102;DHT22;11720;51.214;22.574;2022-07-29T01:32:26;14.00;99.90
23102;DHT22;11720;51.214;22.574;2022-07-29T01:37:41;13.90;99.90
23102;DHT22;11720;51.214;22.574;2022-07-29T01:42:45;13.90;99.90
23102;DHT22;11720;51.214;22.574;2022-07-29T01:48:05;13.80;99.90
23102;DHT22;11720;51.214;22.574;2022-07-29T01:50:37;13.80;99.90
23102;DHT22;11720;51.214;22.574;2022-07-29T01:53:09;13.70;99.90
23102;DHT22;11720;51.214;22.574;2022-07-29T01:55:39;13.80;99.90
23102;DHT22;11720;51.214;22.574;2022-07-29T01:58:07;13.70;99.90
23102;DHT22;11720;51.214;22.574;2022-07-29T02:00:34;13.70;99.90
23102;DHT22;11720;51.214;22.574;2022-07-29T02:03:07;13.70;99.90
23102;DHT22;11720;51.214;22.574;2022-07-29T02:05:34;13.60;99.90
23102;DHT22;11720;51.214;22.574;2022-07-29T02:08:01;13.70;99.90
23102;DHT22;11720;51.214;22.574;2022-07-29T02:10:29;13.60;99.90
23102;DHT22;11720;51.214;22.574;2022-07-29T02:12:57;13.60;99.90
23102;DHT22;11720;51.214;22.574;2022-07-29T02:15:25;13.70;99.90
23102;DHT22;11720;51.214;22.574;2022-07-29T02:18:00;13.70;99.90
23102;DHT22;11720;51.214;22.574;2022-07-29T02:20:28;13.70;99.90
23102;DHT22;11720;51.214;22.574;2022-07-29T02:22:54;13.60;99.90
23102;DHT22;11720;51.214;22.574;2022-07-29T02:25:22;13.60;99.90
23102;DHT22;11720;51.214;22.574;2022-07-29T02:27:50;13.60;99.90
23102;DHT22;11720;51.214;22.574;2022-07-29T02:30:17;13.60;99.90
23102;DHT22;11720;51.214;22.574;2022-07-29T02:32:45;13.60;99.90
23102;DHT22;11720;51.214;22.574;2022-07-29T02:35:13;13.60;99.90
23102;DHT22;11720;51.214;22.574;2022-07-29T02:37:40;13.60;99.90
23102;DHT22;11720;51.214;22.574;2022-07-29T02:40:10;13.50;99.90
23102;DHT22;11720;51.214;22.574;2022-07-29T02:42:37;13.50;99.90
23102;DHT22;11720;51.214;22.574;2022-07-29T02:45:05;13.50;99.90
23102;DHT22;11720;51.214;22.574;2022-07-29T02:47:37;13.50;99.90
23102;DHT22;11720;51.214;22.574;2022-07-29T02:50:13;13.50;99.90
23102;DHT22;11720;51.214;22.574;2022-07-29T02:53:00;13.50;99.90
23102;DHT22;11720;51.214;22.574;2022-07-29T02:55:46;13.50;99.90
23102;DHT22;11720;51.214;22.574;2022-07-29T03:00:55;13.40;99.90
23102;DHT22;11720;51.214;22.574;2022-07-29T03:03:24;13.40;99.90
23102;DHT22;11720;51.214;22.574;2022-07-29T03:05:57;13.40;99.90
23102;DHT22;11720;51.214;22.574;2022-07-29T03:08:24;13.30;99.90
23102;DHT22;11720;51.214;22.574;2022-07-29T03:10:51;13.50;99.90
23102;DHT22;11720;51.214;22.574;2022-07-29T03:13:17;13.40;99.90
23102;DHT22;11720;51.214;22.574;2022-07-29T03:15:45;13.30;99.90
23102;DHT22;11720;51.214;22.574;2022-07-29T03:18:11;13.40;99.90
23102;DHT22;11720;51.214;22.574;2022-07-29T03:20:38;13.50;99.90
23102;DHT22;11720;51.214;22.574;2022-07-29T03:23:04;13.50;99.90
23102;DHT22;11720;51.214;22.574;2022-07-29T03:25:30;13.50;99.90
23102;DHT22;11720;51.214;22.574;2022-07-29T03:27:56;13.60;99.90
23102;DHT22;11720;51.214;22.574;2022-07-29T03:30:22;13.40;99.90
23102;DHT22;11720;51.214;22.574;2022-07-29T03:32:49;13.50;99.90
23102;DHT22;11720;51.214;22.574;2022-07-29T03:35:15;13.60;99.90
23102;DHT22;11720;51.214;22.574;2022-07-29T03:37:42;13.70;99.90
23102;DHT22;11720;51.214;22.574;2022-07-29T03:40:10;13.70;99.90
23102;DHT22;11720;51.214;22.574;2022-07-29T03:42:39;13.70;99.90
23102;DHT22;11720;51.214;22.574;2022-07-29T03:45:10;13.80;99.90
23102;DHT22;11720;51.214;22.574;2022-07-29T03:47:42;13.80;99.90
23102;DHT22;11720;51.214;22.574;2022-07-29T03:50:10;14.00;99.90
23102;DHT22;11720;51.214;22.574;2022-07-29T03:52:37;13.90;99.90
23102;DHT22;11720;51.214;22.574;2022-07-29T03:55:03;13.90;99.90
23102;DHT22;11720;51.214;22.574;2022-07-29T03:57:30;14.00;99.90
23102;DHT22;11720;51.214;22.574;2022-07-29T03:59:57;14.20;99.90
23102;DHT22;11720;51.214;22.574;2022-07-29T04:02:23;14.10;99.90
23102;DHT22;11720;51.214;22.574;2022-07-29T04:04:51;14.30;99.90
23102;DHT22;11720;51.214;22.574;2022-07-29T04:07:17;14.30;99.90
23102;DHT22;11720;51.214;22.574;2022-07-29T04:09:42;14.40;99.90
23102;DHT22;11720;51.214;22.574;2022-07-29T04:12:08;14.30;99.90
23102;DHT22;11720;51.214;22.574;2022-07-29T04:14:35;14.50;99.90
23102;DHT22;11720;51.214;22.574;2022-07-29T04:17:01;14.60;99.90
23102;DHT22;11720;51.214;22.574;2022-07-29T04:19:27;14.60;99.90
23102;DHT22;11720;51.214;22.574;2022-07-29T04:21:53;14.80;99.90
23102;DHT22;11720;51.214;22.574;2022-07-29T04:24:18;14.90;99.90
23102;DHT22;11720;51.214;22.574;2022-07-29T04:26:46;15.00;99.90
23102;DHT22;11720;51.214;22.574;2022-07-29T04:29:12;15.10;99.90
23102;DHT22;11720;51.214;22.574;2022-07-29T04:31:39;15.20;99.90
23102;DHT22;11720;51.214;22.574;2022-07-29T04:34:05;15.30;99.90
23102;DHT22;11720;51.214;22.574;2022-07-29T04:36:31;15.40;99.90
23102;DHT22;11720;51.214;22.574;2022-07-29T04:38:58;15.40;99.90
23102;DHT22;11720;51.214;22.574;2022-07-29T04:41:23;15.50;99.90
23102;DHT22;11720;51.214;22.574;2022-07-29T04:43:49;15.50;99.90
23102;DHT22;11720;51.214;22.574;2022-07-29T04:46:15;15.60;99.90
23102;DHT22;11720;51.214;22.574;2022-07-29T04:48:40;15.70;99.90
23102;DHT22;11720;51.214;22.574;2022-07-29T04:51:06;15.80;99.90
23102;DHT22;11720;51.214;22.574;2022-07-29T04:53:32;15.80;99.90
23102;DHT22;11720;51.214;22.574;2022-07-29T04:55:58;15.90;99.90
23102;DHT22;11720;51.214;22.574;2022-07-29T04:58:24;16.00;99.90
23102;DHT22;11720;51.214;22.574;2022-07-29T05:00:50;16.10;99.90
23102;DHT22;11720;51.214;22.574;2022-07-29T05:03:16;16.10;99.90
23102;DHT22;11720;51.214;22.574;2022-07-29T05:05:41;16.20;99.90
23102;DHT22;11720;51.214;22.574;2022-07-29T05:08:08;16.30;99.90
23102;DHT22;11720;51.214;22.574;2022-07-29T05:10:34;16.40;99.90
23102;DHT22;11720;51.214;22.574;2022-07-29T05:13:05;16.50;99.90
23102;DHT22;11720;51.214;22.574;2022-07-29T05:15:32;16.60;99.90
23102;DHT22;11720;51.214;22.574;2022-07-29T05:18:02;16.70;99.90
23102;DHT22;11720;51.214;22.574;2022-07-29T05:20:28;16.80;99.90
23102;DHT22;11720;51.214;22.574;2022-07-29T05:22:59;16.90;99.90
23102;DHT22;11720;51.214;22.574;2022-07-29T05:25:25;17.10;99.90
23102;DHT22;11720;51.214;22.574;2022-07-29T05:27:51;17.10;99.90
23102;DHT22;11720;51.214;22.574;2022-07-29T05:30:17;17.20;99.90
23102;DHT22;11720;51.214;22.574;2022-07-29T05:32:43;17.30;99.90
23102;DHT22;11720;51.214;22.574;2022-07-29T05:35:09;17.40;99.90
23102;DHT22;11720;51.214;22.574;2022-07-29T05:37:35;17.50;99.90
23102;DHT22;11720;51.214;22.574;2022-07-29T05:40:01;17.60;99.90
23102;DHT22;11720;51.214;22.574;2022-07-29T05:42:27;17.70;99.90
23102;DHT22;11720;51.214;22.574;2022-07-29T05:44:54;17.80;99.90
23102;DHT22;11720;51.214;22.574;2022-07-29T05:47:20;17.90;99.90
23102;DHT22;11720;51.214;22.574;2022-07-29T05:49:46;18.00;99.90
23102;DHT22;11720;51.214;22.574;2022-07-29T05:52:12;18.10;99.90
23102;DHT22;11720;51.214;22.574;2022-07-29T05:54:38;18.20;99.90
23102;DHT22;11720;51.214;22.574;2022-07-29T05:57:04;18.30;99.90
23102;DHT22;11720;51.214;22.574;2022-07-29T05:59:31;18.40;99.90
23102;DHT22;11720;51.214;22.574;2022-07-29T06:02:00;18.50;99.90
23102;DHT22;11720;51.214;22.574;2022-07-29T06:04:26;18.60;99.90
23102;DHT22;11720;51.214;22.574;2022-07-29T06:06:51;18.70;99.90
23102;DHT22;11720;51.214;22.574;2022-07-29T06:09:17;18.70;99.90
23102;DHT22;11720;51.214;22.574;2022-07-29T06:11:42;18.80;99.90
23102;DHT22;11720;51.214;22.574;2022-07-29T06:14:08;18.80;99.90
23102;DHT22;11720;51.214;22.574;2022-07-29T06:16:34;18.90;99.90
23102;DHT22;11720;51.214;22.574;2022-07-29T06:18:59;18.90;99.90
23102;DHT22;11720;51.214;22.574;2022-07-29T06:21:25;19.10;99.90
23102;DHT22;11720;51.214;22.574;2022-07-29T06:23:50;19.20;99.90
23102;DHT22;11720;51.214;22.574;2022-07-29T06:26:16;19.40;99.90
23102;DHT22;11720;51.214;22.574;2022-07-29T06:28:42;19.50;99.90
23102;DHT22;11720;51.214;22.574;2022-07-29T06:31:07;19.50;99.90
23102;DHT22;11720;51.214;22.574;2022-07-29T06:33:33;19.60;99.90
23102;DHT22;11720;51.214;22.574;2022-07-29T06:35:59;19.70;99.90
23102;DHT22;11720;51.214;22.574;2022-07-29T06:38:25;19.80;99.90
23102;DHT22;11720;51.214;22.574;2022-07-29T06:40:50;19.90;99.90
23102;DHT22;11720;51.214;22.574;2022-07-29T06:43:38;20.00;99.90
23102;DHT22;11720;51.214;22.574;2022-07-29T06:46:13;20.00;99.90
23102;DHT22;11720;51.214;22.574;2022-07-29T06:48:39;20.20;99.90
23102;DHT22;11720;51.214;22.574;2022-07-29T06:51:06;20.20;99.90
23102;DHT22;11720;51.214;22.574;2022-07-29T06:53:32;20.30;99.90
23102;DHT22;11720;51.214;22.574;2022-07-29T06:55:59;20.40;99.90
23102;DHT22;11720;51.214;22.574;2022-07-29T06:58:26;20.40;99.90
23102;DHT22;11720;51.214;22.574;2022-07-29T07:00:52;20.50;99.90
23102;DHT22;11720;51.214;22.574;2022-07-29T07:03:18;20.50;99.90
23102;DHT22;11720;51.214;22.574;2022-07-29T07:05:45;20.60;99.90
23102;DHT22;11720;51.214;22.574;2022-07-29T07:08:11;20.60;99.90
23102;DHT22;11720;51.214;22.574;2022-07-29T07:10:37;20.80;99.90
23102;DHT22;11720;51.214;22.574;2022-07-29T07:13:04;20.90;99.90
23102;DHT22;11720;51.214;22.574;2022-07-29T07:15:30;20.90;99.90
23102;DHT22;11720;51.214;22.574;2022-07-29T07:17:56;21.00;99.90
23102;DHT22;11720;51.214;22.574;2022-07-29T07:20:23;21.10;99.90
23102;DHT22;11720;51.214;22.574;2022-07-29T07:22:49;21.30;99.90
23102;DHT22;11720;51.214;22.574;2022-07-29T07:25:14;21.40;99.90
23102;DHT22;11720;51.214;22.574;2022-07-29T07:27:40;21.40;99.90
23102;DHT22;11720;51.214;22.574;2022-07-29T07:30:06;21.30;99.90
23102;DHT22;11720;51.214;22.574;2022-07-29T07:32:33;21.40;99.90
23102;DHT22;11720;51.214;22.574;2022-07-29T07:34:59;21.50;99.90
23102;DHT22;11720;51.214;22.574;2022-07-29T07:37:25;21.60;99.90
23102;DHT22;11720;51.214;22.574;2022-07-29T07:39:52;21.60;99.90
23102;DHT22;11720;51.214;22.574;2022-07-29T07:42:19;21.80;99.90
23102;DHT22;11720;51.214;22.574;2022-07-29T07:44:44;22.00;99.90
23102;DHT22;11720;51.214;22.574;2022-07-29T07:47:14;22.10;99.90
23102;DHT22;11720;51.214;22.574;2022-07-29T07:49:40;22.20;99.90
23102;DHT22;11720;51.214;22.574;2022-07-29T07:52:06;22.30;99.90
23102;DHT22;11720;51.214;22.574;2022-07-29T07:54:31;22.40;99.90
23102;DHT22;11720;51.214;22.574;2022-07-29T07:56:57;22.50;99.90
23102;DHT22;11720;51.214;22.574;2022-07-29T07:59:23;22.60;99.90
23102;DHT22;11720;51.214;22.574;2022-07-29T08:01:49;22.70;99.90
23102;DHT22;11720;51.214;22.574;2022-07-29T08:04:15;22.70;99.60
23102;DHT22;11720;51.214;22.574;2022-07-29T08:06:40;22.60;99.00
23102;DHT22;11720;51.214;22.574;2022-07-29T08:09:06;22.60;97.70
23102;DHT22;11720;51.214;22.574;2022-07-29T08:11:32;22.60;98.80
23102;DHT22;11720;51.214;22.574;2022-07-29T08:13:58;22.70;98.00
23102;DHT22;11720;51.214;22.574;2022-07-29T08:16:24;22.70;97.60
23102;DHT22;11720;51.214;22.574;2022-07-29T08:18:51;22.80;97.10
23102;DHT22;11720;51.214;22.574;2022-07-29T08:21:17;22.90;96.50
23102;DHT22;11720;51.214;22.574;2022-07-29T08:23:46;22.90;94.30
23102;DHT22;11720;51.214;22.574;2022-07-29T08:26:14;23.10;96.20
23102;DHT22;11720;51.214;22.574;2022-07-29T08:28:42;23.10;94.90
23102;DHT22;11720;51.214;22.574;2022-07-29T08:31:11;23.20;93.90
23102;DHT22;11720;51.214;22.574;2022-07-29T08:33:38;23.20;94.30
23102;DHT22;11720;51.214;22.574;2022-07-29T08:36:05;23.20;94.80
23102;DHT22;11720;51.214;22.574;2022-07-29T08:38:31;23.40;94.50
23102;DHT22;11720;51.214;22.574;2022-07-29T08:40:58;23.40;94.00
23102;DHT22;11720;51.214;22.574;2022-07-29T08:43:25;23.30;92.30
23102;DHT22;11720;51.214;22.574;2022-07-29T08:45:51;23.30;92.80
23102;DHT22;11720;51.214;22.574;2022-07-29T08:48:22;23.40;91.50
23102;DHT22;11720;51.214;22.574;2022-07-29T08:50:53;23.40;90.50
23102;DHT22;11720;51.214;22.574;2022-07-29T08:53:21;23.50;88.40
23102;DHT22;11720;51.214;22.574;2022-07-29T08:55:48;23.50;90.70
23102;DHT22;11720;51.214;22.574;2022-07-29T08:58:15;23.70;89.40
23102;DHT22;11720;51.214;22.574;2022-07-29T09:00:43;23.70;89.70
23102;DHT22;11720;51.214;22.574;2022-07-29T09:03:12;23.90;89.10
23102;DHT22;11720;51.214;22.574;2022-07-29T09:05:42;23.90;89.70
23102;DHT22;11720;51.214;22.574;2022-07-29T09:08:08;24.00;86.60
23102;DHT22;11720;51.214;22.574;2022-07-29T09:10:35;24.10;87.50
23102;DHT22;11720;51.214;22.574;2022-07-29T09:13:01;24.10;86.40
23102;DHT22;11720;51.214;22.574;2022-07-29T09:15:27;24.10;85.90
23102;DHT22;11720;51.214;22.574;2022-07-29T09:17:52;24.30;86.90
23102;DHT22;11720;51.214;22.574;2022-07-29T09:20:20;24.40;83.30
23102;DHT22;11720;51.214;22.574;2022-07-29T09:22:47;24.30;82.30
23102;DHT22;11720;51.214;22.574;2022-07-29T09:25:15;24.40;81.10
23102;DHT22;11720;51.214;22.574;2022-07-29T09:28:06;24.40;81.90
23102;DHT22;11720;51.214;22.574;2022-07-29T09:30:31;24.60;81.90
23102;DHT22;11720;51.214;22.574;2022-07-29T09:32:59;24.80;81.30
23102;DHT22;11720;51.214;22.574;2022-07-29T09:35:27;24.80;77.80
23102;DHT22;11720;51.214;22.574;2022-07-29T09:37:53;24.80;79.10
23102;DHT22;11720;51.214;22.574;2022-07-29T09:40:24;25.00;79.60
23102;DHT22;11720;51.214;22.574;2022-07-29T09:42:51;25.10;79.20
23102;DHT22;11720;51.214;22.574;2022-07-29T09:45:32;25.10;78.00
23102;DHT22;11720;51.214;22.574;2022-07-29T09:47:58;25.10;78.00
23102;DHT22;11720;51.214;22.574;2022-07-29T09:50:41;25.20;78.10
23102;DHT22;11720;51.214;22.574;2022-07-29T09:53:07;25.20;79.30
23102;DHT22;11720;51.214;22.574;2022-07-29T09:55:49;25.30;78.20
23102;DHT22;11720;51.214;22.574;2022-07-29T09:58:20;25.30;78.90
23102;DHT22;11720;51.214;22.574;2022-07-29T10:00:47;25.40;78.30
23102;DHT22;11720;51.214;22.574;2022-07-29T10:03:14;25.40;77.50
23102;DHT22;11720;51.214;22.574;2022-07-29T10:05:44;25.50;80.30
23102;DHT22;11720;51.214;22.574;2022-07-29T10:08:12;25.70;78.40
23102;DHT22;11720;51.214;22.574;2022-07-29T10:10:41;24.50;76.80
23102;DHT22;11720;51.214;22.574;2022-07-29T10:13:14;25.80;79.40
23102;DHT22;11720;51.214;22.574;2022-07-29T10:15:41;25.90;77.50
23102;DHT22;11720;51.214;22.574;2022-07-29T10:18:10;26.00;75.50
23102;DHT22;11720;51.214;22.574;2022-07-29T10:20:37;26.20;76.00
23102;DHT22;11720;51.214;22.574;2022-07-29T10:23:03;26.20;75.90
23102;DHT22;11720;51.214;22.574;2022-07-29T10:25:30;26.50;76.10
23102;DHT22;11720;51.214;22.574;2022-07-29T10:27:56;26.70;75.60
23102;DHT22;11720;51.214;22.574;2022-07-29T10:30:24;26.70;74.20
23102;DHT22;11720;51.214;22.574;2022-07-29T10:44:21;26.90;71.00
23102;DHT22;11720;51.214;22.574;2022-07-29T10:46:48;27.00;67.80
23102;DHT22;11720;51.214;22.574;2022-07-29T10:49:16;27.10;69.90
23102;DHT22;11720;51.214;22.574;2022-07-29T10:54:18;27.30;69.00
23102;DHT22;11720;51.214;22.574;2022-07-29T10:56:43;27.40;70.20
23102;DHT22;11720;51.214;22.574;2022-07-29T11:01:51;27.40;67.30
23102;DHT22;11720;51.214;22.574;2022-07-29T11:07:11;27.60;67.00
23102;DHT22;11720;51.214;22.574;2022-07-29T11:09:38;27.50;66.60
23102;DHT22;11720;51.214;22.574;2022-07-29T11:12:45;27.50;65.90
23102;DHT22;11720;51.214;22.574;2022-07-29T11:14:59;27.50;65.20
23102;DHT22;11720;51.214;22.574;2022-07-29T11:17:26;27.60;66.80
23102;DHT22;11720;51.214;22.574;2022-07-29T11:20:31;27.80;66.90
23102;DHT22;11720;51.214;22.574;2022-07-29T11:22:57;27.90;65.00
23102;DHT22;11720;51.214;22.574;2022-07-29T11:25:23;28.00;62.90
23102;DHT22;11720;51.214;22.574;2022-07-29T11:27:49;27.90;64.00
23102;DHT22;11720;51.214;22.574;2022-07-29T11:30:17;27.90;62.90
23102;DHT22;11720;51.214;22.574;2022-07-29T11:32:44;27.90;62.20
23102;DHT22;11720;51.214;22.574;2022-07-29T11:35:19;27.70;63.00
23102;DHT22;11720;51.214;22.574;2022-07-29T11:41:25;27.40;63.40
23102;DHT22;11720;51.214;22.574;2022-07-29T11:43:53;27.40;61.90
23102;DHT22;11720;51.214;22.574;2022-07-29T11:46:45;27.50;64.10
23102;DHT22;11720;51.214;22.574;2022-07-29T11:49:12;27.40;61.50
23102;DHT22;11720;51.214;22.574;2022-07-29T11:51:38;27.30;61.90
23102;DHT22;11720;51.214;22.574;2022-07-29T11:54:05;27.40;62.30
23102;DHT22;11720;51.214;22.574;2022-07-29T11:56:34;27.50;61.50
23102;DHT22;11720;51.214;22.574;2022-07-29T11:59:05;27.50;63.20
23102;DHT22;11720;51.214;22.574;2022-07-29T12:01:32;27.50;63.40
23102;DHT22;11720;51.214;22.574;2022-07-29T12:04:07;27.50;62.20
23102;DHT22;11720;51.214;22.574;2022-07-29T12:06:34;27.10;63.00
23102;DHT22;11720;51.214;22.574;2022-07-29T12:09:00;27.00;63.50
23102;DHT22;11720;51.214;22.574;2022-07-29T12:11:25;27.00;63.00
23102;DHT22;11720;51.214;22.574;2022-07-29T12:13:51;27.00;63.00
23102;DHT22;11720;51.214;22.574;2022-07-29T12:16:19;27.10;62.20
23102;DHT22;11720;51.214;22.574;2022-07-29T12:18:59;27.10;64.00
23102;DHT22;11720;51.214;22.574;2022-07-29T12:21:26;27.20;62.60
23102;DHT22;11720;51.214;22.574;2022-07-29T12:23:53;27.30;61.30
23102;DHT22;11720;51.214;22.574;2022-07-29T12:26:19;27.20;61.20
23102;DHT22;11720;51.214;22.574;2022-07-29T12:28:45;27.20;61.70
23102;DHT22;11720;51.214;22.574;2022-07-29T12:31:14;27.30;62.30
23102;DHT22;11720;51.214;22.574;2022-07-29T12:33:41;27.20;61.20
23102;DHT22;11720;51.214;22.574;2022-07-29T12:36:07;27.20;62.10
23102;DHT22;11720;51.214;22.574;2022-07-29T12:38:34;27.10;62.30
23102;DHT22;11720;51.214;22.574;2022-07-29T12:41:00;27.20;61.90
23102;DHT22;11720;51.214;22.574;2022-07-29T12:43:26;27.20;62.80
23102;DHT22;11720;51.214;22.574;2022-07-29T12:45:54;27.20;61.60
23102;DHT22;11720;51.214;22.574;2022-07-29T12:48:37;27.20;62.00
23102;DHT22;11720;51.214;22.574;2022-07-29T12:51:04;27.30;60.40
23102;DHT22;11720;51.214;22.574;2022-07-29T12:53:31;27.30;61.30
23102;DHT22;11720;51.214;22.574;2022-07-29T12:55:57;27.30;61.10
23102;DHT22;11720;51.214;22.574;2022-07-29T12:58:27;27.40;60.90
23102;DHT22;11720;51.214;22.574;2022-07-29T13:01:20;27.40;61.90
23102;DHT22;11720;51.214;22.574;2022-07-29T13:03:58;27.50;61.40
23102;DHT22;11720;51.214;22.574;2022-07-29T13:09:12;27.60;60.00
23102;DHT22;11720;51.214;22.574;2022-07-29T13:11:45;27.50;60.60
23102;DHT22;11720;51.214;22.574;2022-07-29T13:17:12;27.40;59.60
23102;DHT22;11720;51.214;22.574;2022-07-29T13:19:52;27.30;61.40
23102;DHT22;11720;51.214;22.574;2022-07-29T13:22:20;27.40;62.10
23102;DHT22;11720;51.214;22.574;2022-07-29T13:24:52;27.50;60.80
23102;DHT22;11720;51.214;22.574;2022-07-29T13:27:20;27.70;60.50
23102;DHT22;11720;51.214;22.574;2022-07-29T13:29:46;27.70;58.90
23102;DHT22;11720;51.214;22.574;2022-07-29T13:32:12;27.70;60.00
23102;DHT22;11720;51.214;22.574;2022-07-29T13:34:39;27.90;60.50
23102;DHT22;11720;51.214;22.574;2022-07-29T13:37:05;27.70;60.00
23102;DHT22;11720;51.214;22.574;2022-07-29T13:39:30;27.60;59.70
23102;DHT22;11720;51.214;22.574;2022-07-29T13:41:56;27.70;59.90
23102;DHT22;11720;51.214;22.574;2022-07-29T13:44:22;27.60;59.10
23102;DHT22;11720;51.214;22.574;2022-07-29T13:46:47;27.50;60.00
23102;DHT22;11720;51.214;22.574;2022-07-29T13:49:13;27.50;60.40
23102;DHT22;11720;51.214;22.574;2022-07-29T13:51:39;27.50;59.60
23102;DHT22;11720;51.214;22.574;2022-07-29T13:54:05;27.40;59.40
23102;DHT22;11720;51.214;22.574;2022-07-29T13:56:30;27.20;59.40
23102;DHT22;11720;51.214;22.574;2022-07-29T13:58:56;27.00;60.20
23102;DHT22;11720;51.214;22.574;2022-07-29T14:01:22;26.90;60.90
23102;DHT22;11720;51.214;22.574;2022-07-29T14:03:48;26.90;61.30
23102;DHT22;11720;51.214;22.574;2022-07-29T14:06:14;26.80;61.20
23102;DHT22;11720;51.214;22.574;2022-07-29T14:08:39;26.80;63.50
23102;DHT22;11720;51.214;22.574;2022-07-29T14:11:05;26.90;61.20
23102;DHT22;11720;51.214;22.574;2022-07-29T14:13:31;26.90;62.90
23102;DHT22;11720;51.214;22.574;2022-07-29T14:15:56;27.10;60.70
23102;DHT22;11720;51.214;22.574;2022-07-29T14:18:22;27.00;60.90
23102;DHT22;11720;51.214;22.574;2022-07-29T14:20:48;27.00;62.20
23102;DHT22;11720;51.214;22.574;2022-07-29T14:23:13;26.90;61.80
23102;DHT22;11720;51.214;22.574;2022-07-29T14:25:39;26.90;61.00
23102;DHT22;11720;51.214;22.574;2022-07-29T14:28:04;26.80;62.70
23102;DHT22;11720;51.214;22.574;2022-07-29T14:30:30;26.80;61.30
23102;DHT22;11720;51.214;22.574;2022-07-29T14:32:56;26.80;61.40
23102;DHT22;11720;51.214;22.574;2022-07-29T14:35:21;26.70;62.60
23102;DHT22;11720;51.214;22.574;2022-07-29T14:37:47;26.60;62.70
23102;DHT22;11720;51.214;22.574;2022-07-29T14:40:12;26.60;64.70
23102;DHT22;11720;51.214;22.574;2022-07-29T14:42:38;26.50;62.70
23102;DHT22;11720;51.214;22.574;2022-07-29T14:45:05;26.40;63.70
23102;DHT22;11720;51.214;22.574;2022-07-29T14:47:32;26.40;63.20
23102;DHT22;11720;51.214;22.574;2022-07-29T14:49:57;26.30;64.00
23102;DHT22;11720;51.214;22.574;2022-07-29T14:52:23;26.20;64.10
23102;DHT22;11720;51.214;22.574;2022-07-29T14:54:49;26.20;64.00
23102;DHT22;11720;51.214;22.574;2022-07-29T14:57:14;26.20;64.20
23102;DHT22;11720;51.214;22.574;2022-07-29T14:59:40;26.20;63.70
23102;DHT22;11720;51.214;22.574;2022-07-29T15:02:06;26.30;62.70
23102;DHT22;11720;51.214;22.574;2022-07-29T15:04:31;26.40;63.60
23102;DHT22;11720;51.214;22.574;2022-07-29T15:06:57;26.40;64.20
23102;DHT22;11720;51.214;22.574;2022-07-29T15:09:23;26.30;63.60
23102;DHT22;11720;51.214;22.574;2022-07-29T15:11:49;26.20;63.30
23102;DHT22;11720;51.214;22.574;2022-07-29T15:14:14;26.20;63.60
23102;DHT22;11720;51.214;22.574;2022-07-29T15:16:40;26.20;62.90
23102;DHT22;11720;51.214;22.574;2022-07-29T15:19:08;26.20;65.50
23102;DHT22;11720;51.214;22.574;2022-07-29T15:21:33;26.20;64.20
23102;DHT22;11720;51.214;22.574;2022-07-29T15:23:59;26.20;63.60
23102;DHT22;11720;51.214;22.574;2022-07-29T15:26:25;26.10;64.10
23102;DHT22;11720;51.214;22.574;2022-07-29T15:28:51;26.00;64.30
23102;DHT22;11720;51.214;22.574;2022-07-29T15:31:17;25.90;64.80
23102;DHT22;11720;51.214;22.574;2022-07-29T15:33:44;26.10;64.60
23102;DHT22;11720;51.214;22.574;2022-07-29T15:36:10;25.70;64.70
23102;DHT22;11720;51.214;22.574;2022-07-29T15:38:37;25.60;64.80
23102;DHT22;11720;51.214;22.574;2022-07-29T15:41:04;25.50;65.50
23102;DHT22;11720;51.214;22.574;2022-07-29T15:43:30;25.50;66.80
23102;DHT22;11720;51.214;22.574;2022-07-29T15:45:55;25.30;66.80
23102;DHT22;11720;51.214;22.574;2022-07-29T15:48:39;25.30;67.30
23102;DHT22;11720;51.214;22.574;2022-07-29T15:51:05;25.20;67.50
23102;DHT22;11720;51.214;22.574;2022-07-29T15:53:31;25.20;67.30
23102;DHT22;11720;51.214;22.574;2022-07-29T15:55:56;25.10;67.00
23102;DHT22;11720;51.214;22.574;2022-07-29T15:58:22;25.20;68.20
23102;DHT22;11720;51.214;22.574;2022-07-29T16:00:48;25.10;67.50
23102;DHT22;11720;51.214;22.574;2022-07-29T16:03:13;25.10;66.40
23102;DHT22;11720;51.214;22.574;2022-07-29T16:05:41;25.10;67.30